Time;durP1;ratioP1;P1;durP2;ratioP2;P2;SDS_P1;SDS_P2;PMS_P1;PMS_P2;Temp;Humidity;BMP_temperature;BMP_pressure;BME280_temperature;BME280_humidity;BME280_pressure;Samples;Min_cycle;Max_cycle;Signal;HPM_P1;HPM_P2
2022/03/01 00:02:19;;;;;;;26.60;17.42;;;9.00;99.90;;;;;;5039400;28;20160;-79
2022/03/01 00:04:45;;;;;;;25.42;19.83;;;8.90;99.90;;;;;;5034832;28;20536;-78
2022/03/01 00:07:10;;;;;;;24.95;18.02;;;8.80;99.90;;;;;;5033939;28;20021;-79
2022/03/01 00:09:36;;;;;;;28.25;16.98;;;8.60;99.90;;;;;;5036599;28;20086;-79
2022/03/01 00:12:03;;;;;;;17.13;14.02;;;8.80;99.90;;;;;;5042138;28;20025;-79
2022/03/01 00:14:28;;;;;;;20.48;13.30;;;8.90;99.90;;;;;;5038680;28;20064;-79
2022/03/01 00:16:54;;;;;;;17.77;12.82;;;9.00;99.90;;;;;;5037013;28;20447;-79
2022/03/01 00:19:20;;;;;;;15.23;11.48;;;9.00;99.90;;;;;;5032249;28;20041;-79
2022/03/01 00:21:46;;;;;;;18.25;13.63;;;9.20;99.90;;;;;;5028187;28;20030;-79
2022/03/01 00:24:12;;;;;;;21.77;15.48;;;9.10;99.90;;;;;;5041019;28;20423;-79
2022/03/01 00:26:38;;;;;;;20.40;14.60;;;9.00;99.90;;;;;;5031865;28;20326;-80
2022/03/01 00:29:04;;;;;;;22.90;14.45;;;8.90;99.90;;;;;;5032493;28;20030;-79
2022/03/01 00:31:30;;;;;;;20.65;14.15;;;8.80;99.90;;;;;;5032790;28;20041;-79
2022/03/01 00:33:56;;;;;;;19.17;13.13;;;8.90;99.90;;;;;;5026853;28;20018;-79
2022/03/01 00:36:22;;;;;;;23.17;14.15;;;9.00;99.90;;;;;;5034229;28;20091;-79
2022/03/01 00:38:47;;;;;;;18.05;13.70;;;9.00;99.90;;;;;;5035736;28;20553;-78
2022/03/01 00:41:13;;;;;;;19.83;12.52;;;8.90;99.90;;;;;;5034272;28;20112;-78
2022/03/01 00:43:39;;;;;;;16.58;11.38;;;9.10;99.90;;;;;;5034366;28;20057;-79
2022/03/01 00:46:04;;;;;;;16.17;11.90;;;9.20;99.90;;;;;;5035212;28;20496;-78
2022/03/01 00:48:30;;;;;;;17.58;12.68;;;9.30;99.90;;;;;;5040511;28;20522;-79
2022/03/01 00:50:56;;;;;;;18.10;12.43;;;9.20;99.90;;;;;;5044943;28;20033;-79
2022/03/01 00:53:22;;;;;;;19.10;13.18;;;9.10;99.90;;;;;;5044364;28;20036;-78
2022/03/01 00:55:47;;;;;;;18.70;12.07;;;9.10;99.90;;;;;;5040470;28;20032;-79
2022/03/01 00:58:14;;;;;;;19.08;12.88;;;8.90;99.90;;;;;;5034467;28;20108;-78
2022/03/01 01:00:40;;;;;;;17.90;13.48;;;8.80;99.90;;;;;;5022646;28;20064;-78
2022/03/01 01:03:05;;;;;;;18.25;13.35;;;8.70;99.90;;;;;;5033391;28;20029;-78
2022/03/01 01:05:31;;;;;;;21.25;13.88;;;8.80;99.90;;;;;;5030233;28;20080;-79
2022/03/01 01:07:57;;;;;;;16.23;12.48;;;8.60;99.90;;;;;;5030174;28;20025;-78
2022/03/01 01:10:23;;;;;;;19.63;13.90;;;8.50;99.90;;;;;;5030456;28;20049;-79
2022/03/01 01:12:49;;;;;;;23.20;15.45;;;8.50;99.90;;;;;;5030128;28;20168;-78
2022/03/01 01:15:17;;;;;;;18.35;13.07;;;8.60;99.90;;;;;;5032628;28;20081;-78
2022/03/01 01:17:43;;;;;;;20.38;14.10;;;8.80;99.90;;;;;;5031650;28;20033;-78
2022/03/01 01:20:10;;;;;;;21.13;15.48;;;8.70;99.90;;;;;;5030170;28;20117;-79
2022/03/01 01:22:42;;;;;;;19.00;13.90;;;8.70;99.90;;;;;;5030001;28;20029;-78
2022/03/01 01:25:16;;;;;;;19.13;13.20;;;8.70;99.90;;;;;;5029571;28;20021;-79
2022/03/01 01:27:45;;;;;;;21.05;10.88;;;8.80;99.90;;;;;;5029566;28;20061;-78
2022/03/01 01:30:14;;;;;;;15.45;8.23;;;9.00;99.90;;;;;;5032457;28;20414;-79
2022/03/01 01:32:40;;;;;;;13.98;7.65;;;9.10;99.90;;;;;;5032336;28;20083;-78
2022/03/01 01:35:08;;;;;;;11.82;6.50;;;9.20;99.90;;;;;;5031626;28;20045;-79
2022/03/01 01:37:34;;;;;;;12.82;6.15;;;9.40;99.90;;;;;;5031547;28;20025;-79
2022/03/01 01:40:00;;;;;;;12.18;5.80;;;9.50;99.90;;;;;;5031957;28;20044;-78
2022/03/01 01:42:26;;;;;;;9.25;5.70;;;9.60;99.90;;;;;;5031333;28;20021;-79
2022/03/01 01:44:51;;;;;;;9.80;5.22;;;9.60;99.90;;;;;;5032301;28;20037;-79
2022/03/01 01:47:17;;;;;;;12.10;5.85;;;9.50;99.90;;;;;;5031234;28;20026;-79
2022/03/01 01:49:43;;;;;;;14.63;5.72;;;9.50;99.90;;;;;;5031153;28;20041;-78
2022/03/01 01:52:09;;;;;;;8.60;5.78;;;9.60;99.90;;;;;;5030975;28;20132;-78
2022/03/01 01:54:34;;;;;;;12.27;6.05;;;9.40;99.90;;;;;;5029888;28;20368;-78
2022/03/01 01:57:00;;;;;;;14.18;6.70;;;9.40;99.90;;;;;;5032288;28;20022;-78
2022/03/01 01:59:26;;;;;;;10.68;6.78;;;9.30;99.90;;;;;;5031035;28;20132;-79
2022/03/01 02:01:52;;;;;;;10.70;6.13;;;9.20;99.90;;;;;;5029676;28;20117;-78
2022/03/01 02:04:18;;;;;;;11.10;7.03;;;9.20;99.90;;;;;;5031080;28;20398;-78
2022/03/01 02:06:52;;;;;;;16.55;6.90;;;9.30;99.90;;;;;;5030830;28;20034;-78
2022/03/01 02:09:17;;;;;;;14.98;6.55;;;9.20;99.90;;;;;;5031034;28;20036;-78
2022/03/01 02:11:43;;;;;;;10.98;6.70;;;9.20;99.90;;;;;;5030801;28;20029;-78
2022/03/01 02:14:09;;;;;;;10.63;6.47;;;9.10;99.90;;;;;;5030447;28;20502;-78
2022/03/01 02:16:36;;;;;;;11.48;7.13;;;9.10;99.90;;;;;;5030842;28;20049;-78
2022/03/01 02:19:04;;;;;;;13.02;7.50;;;9.10;99.90;;;;;;5031077;28;20030;-77
2022/03/01 02:21:30;;;;;;;11.82;7.05;;;9.10;99.90;;;;;;5030588;28;20037;-78
2022/03/01 02:23:55;;;;;;;12.18;7.18;;;9.20;99.90;;;;;;5031968;28;20497;-78
2022/03/01 02:26:21;;;;;;;13.88;7.85;;;9.10;99.90;;;;;;5030922;28;20437;-77
2022/03/01 02:28:47;;;;;;;14.00;9.43;;;9.10;99.90;;;;;;5029994;28;20044;-78
2022/03/01 02:31:13;;;;;;;13.30;8.95;;;9.10;99.90;;;;;;5029731;28;20120;-78
2022/03/01 02:33:38;;;;;;;18.60;9.70;;;9.10;99.90;;;;;;5030896;28;20487;-77
2022/03/01 02:36:04;;;;;;;16.98;9.35;;;9.00;99.90;;;;;;5031582;28;20406;-78
2022/03/01 02:38:32;;;;;;;17.38;10.50;;;9.00;99.90;;;;;;5030045;28;20025;-78
2022/03/01 02:40:58;;;;;;;15.40;8.90;;;9.00;99.90;;;;;;5029780;28;20116;-78
2022/03/01 02:43:24;;;;;;;14.27;8.43;;;9.00;99.90;;;;;;5029848;28;20112;-78
2022/03/01 02:45:50;;;;;;;14.88;8.55;;;9.10;99.90;;;;;;5029831;28;20030;-78
2022/03/01 02:48:15;;;;;;;13.75;8.20;;;9.00;99.90;;;;;;5030769;28;20037;-78
2022/03/01 02:50:41;;;;;;;12.95;8.13;;;9.00;99.90;;;;;;5030140;28;20029;-78
2022/03/01 02:53:07;;;;;;;12.88;7.90;;;9.00;99.90;;;;;;5030038;28;20021;-78
2022/03/01 02:55:33;;;;;;;12.30;8.15;;;8.90;99.90;;;;;;5029508;28;20075;-78
2022/03/01 02:57:58;;;;;;;12.48;7.85;;;9.00;99.90;;;;;;5029383;28;20417;-78
2022/03/01 03:00:24;;;;;;;16.33;8.05;;;9.00;99.90;;;;;;5030237;28;20037;-78
2022/03/01 03:02:50;;;;;;;13.32;8.27;;;9.00;99.90;;;;;;5030475;28;20513;-78
2022/03/01 03:05:16;;;;;;;13.73;8.77;;;9.00;99.90;;;;;;5029597;28;20164;-79
2022/03/01 03:07:42;;;;;;;13.43;9.02;;;9.00;99.90;;;;;;5028198;28;20021;-78
2022/03/01 03:10:08;;;;;;;13.75;8.57;;;9.00;99.90;;;;;;5029232;28;20026;-78
2022/03/01 03:12:34;;;;;;;13.82;9.25;;;9.00;99.90;;;;;;5028702;28;20038;-78
2022/03/01 03:15:00;;;;;;;14.40;8.98;;;9.00;99.90;;;;;;5031416;28;20028;-78
2022/03/01 03:17:25;;;;;;;14.43;10.60;;;8.90;99.90;;;;;;5029030;28;20556;-78
2022/03/01 03:19:51;;;;;;;14.30;12.27;;;8.90;99.90;;;;;;5029123;28;20064;-78
2022/03/01 03:22:17;;;;;;;15.98;10.90;;;8.80;99.90;;;;;;5031717;28;20025;-78
2022/03/01 03:24:43;;;;;;;15.30;10.15;;;8.80;99.90;;;;;;5032739;28;20030;-78
2022/03/01 03:27:09;;;;;;;13.43;9.75;;;8.70;99.90;;;;;;5033586;28;20032;-79
2022/03/01 03:29:34;;;;;;;13.38;9.35;;;8.70;99.90;;;;;;5032682;28;20022;-78
2022/03/01 03:32:00;;;;;;;14.15;7.68;;;8.70;99.90;;;;;;5027724;28;20040;-78
2022/03/01 03:34:26;;;;;;;13.02;8.75;;;8.70;99.90;;;;;;5032496;28;20040;-78
2022/03/01 03:36:52;;;;;;;14.48;9.07;;;8.60;99.90;;;;;;5032811;28;20092;-78
2022/03/01 03:39:19;;;;;;;13.07;8.18;;;8.60;99.90;;;;;;5033930;28;20045;-78
2022/03/01 03:41:45;;;;;;;12.15;7.45;;;8.80;99.90;;;;;;5032903;28;20034;-78
2022/03/01 03:44:11;;;;;;;13.85;7.10;;;8.70;99.70;;;;;;5032059;28;20029;-78
2022/03/01 03:46:40;;;;;;;11.43;6.53;;;8.90;98.10;;;;;;5032126;28;20032;-79
2022/03/01 03:49:05;;;;;;;10.27;5.47;;;9.00;97.10;;;;;;5024068;28;20049;-79
2022/03/01 03:51:31;;;;;;;8.68;5.15;;;9.20;95.40;;;;;;5032738;28;20096;-78
2022/03/01 03:53:57;;;;;;;10.05;5.60;;;9.30;94.60;;;;;;5033714;28;20026;-78
2022/03/01 03:56:23;;;;;;;13.48;5.78;;;9.40;93.50;;;;;;5031549;28;20029;-79
2022/03/01 03:58:50;;;;;;;9.00;5.20;;;9.40;93.50;;;;;;5031877;28;20049;-78
2022/03/01 04:01:16;;;;;;;9.50;5.10;;;9.40;92.80;;;;;;5031594;28;20036;-78
2022/03/01 04:03:41;;;;;;;9.10;5.55;;;9.40;92.90;;;;;;5031360;28;20033;-79
2022/03/01 04:06:10;;;;;;;12.02;5.63;;;9.50;92.20;;;;;;5030123;28;20025;-79
2022/03/01 04:08:36;;;;;;;11.52;5.55;;;9.50;92.00;;;;;;5031198;28;20081;-79
2022/03/01 04:11:01;;;;;;;9.65;5.18;;;9.40;92.40;;;;;;5033291;28;20041;-78
2022/03/01 04:13:27;;;;;;;8.85;5.07;;;9.40;91.60;;;;;;5031334;28;20517;-78
2022/03/01 04:15:53;;;;;;;7.53;4.50;;;9.50;90.80;;;;;;5031002;28;20407;-78
2022/03/01 04:18:19;;;;;;;10.80;4.63;;;9.60;90.70;;;;;;5033150;28;20385;-78
2022/03/01 04:20:44;;;;;;;11.05;4.70;;;9.60;90.80;;;;;;5031754;28;20700;-78
2022/03/01 04:23:11;;;;;;;7.55;4.47;;;9.70;91.10;;;;;;5030844;28;20026;-79
2022/03/01 04:25:37;;;;;;;10.23;5.00;;;9.60;91.00;;;;;;5030742;28;20029;-79
2022/03/01 04:28:03;;;;;;;9.63;4.75;;;9.60;90.80;;;;;;5029475;28;20092;-79
2022/03/01 04:30:29;;;;;;;10.98;5.25;;;9.60;90.60;;;;;;5032570;28;20013;-79
2022/03/01 04:32:55;;;;;;;8.40;4.78;;;9.60;90.90;;;;;;5031366;28;20091;-79
2022/03/01 04:35:20;;;;;;;11.10;5.28;;;9.50;91.10;;;;;;5030863;28;20032;-79
2022/03/01 04:37:47;;;;;;;9.05;5.13;;;9.50;91.40;;;;;;5030467;28;20068;-79
2022/03/01 04:40:16;;;;;;;9.10;5.50;;;9.50;91.40;;;;;;5030250;28;20075;-79
2022/03/01 04:42:42;;;;;;;10.98;6.28;;;9.40;91.50;;;;;;5026962;28;20041;-78
2022/03/01 04:45:11;;;;;;;10.23;5.90;;;9.30;91.80;;;;;;5034184;28;20036;-79
2022/03/01 04:47:38;;;;;;;13.40;5.60;;;9.30;91.80;;;;;;5030553;28;20072;-78
2022/03/01 04:50:06;;;;;;;12.00;5.57;;;9.20;92.10;;;;;;5030082;28;20037;-78
2022/03/01 04:52:31;;;;;;;10.48;5.53;;;9.20;92.00;;;;;;5030162;28;20021;-78
2022/03/01 04:54:57;;;;;;;9.65;5.40;;;9.20;91.80;;;;;;5030022;28;20080;-78
2022/03/01 04:57:23;;;;;;;8.77;5.35;;;9.30;91.80;;;;;;5032366;28;20446;-78
2022/03/01 04:59:49;;;;;;;10.88;6.03;;;9.20;91.70;;;;;;5031267;28;20030;-78
2022/03/01 05:02:14;;;;;;;9.90;5.60;;;9.10;92.00;;;;;;5030088;28;20018;-79
2022/03/01 05:04:40;;;;;;;11.93;5.85;;;9.10;92.80;;;;;;5029833;28;20041;-78
2022/03/01 05:07:09;;;;;;;9.52;5.53;;;9.00;92.30;;;;;;5029887;28;20021;-79
2022/03/01 05:09:35;;;;;;;13.05;6.68;;;9.10;92.20;;;;;;5030664;28;20099;-79
2022/03/01 05:12:00;;;;;;;11.85;6.15;;;9.20;92.20;;;;;;5032596;28;20116;-79
2022/03/01 05:14:26;;;;;;;9.60;5.70;;;9.10;92.30;;;;;;5029927;28;20474;-78
2022/03/01 05:16:52;;;;;;;11.65;6.00;;;9.20;91.70;;;;;;5029532;28;20037;-78
2022/03/01 05:19:18;;;;;;;11.68;5.45;;;9.10;91.70;;;;;;5029675;28;20383;-78
2022/03/01 05:21:44;;;;;;;11.05;5.88;;;9.00;91.70;;;;;;5029886;28;20402;-78
2022/03/01 05:24:11;;;;;;;11.80;6.03;;;9.20;90.80;;;;;;5032940;28;20029;-78
2022/03/01 05:26:37;;;;;;;8.90;5.30;;;9.30;90.50;;;;;;5029700;28;20026;-79
2022/03/01 05:29:03;;;;;;;10.27;6.43;;;9.30;90.50;;;;;;5029598;28;20410;-78
2022/03/01 05:31:29;;;;;;;13.35;5.63;;;9.20;90.60;;;;;;5029833;28;20037;-78
2022/03/01 05:33:55;;;;;;;10.60;5.75;;;9.20;90.70;;;;;;5029343;28;20037;-78
2022/03/01 05:36:21;;;;;;;13.35;6.25;;;9.10;90.70;;;;;;5031581;28;20441;-78
2022/03/01 05:38:46;;;;;;;13.55;5.68;;;9.20;90.40;;;;;;5030294;28;20029;-78
2022/03/01 05:41:12;;;;;;;11.82;6.03;;;9.20;90.30;;;;;;5029127;28;20125;-77
2022/03/01 05:43:38;;;;;;;10.30;5.70;;;9.20;90.10;;;;;;5029475;28;20037;-77
2022/03/01 05:46:07;;;;;;;11.80;5.78;;;9.30;89.80;;;;;;5027926;28;20516;-78
2022/03/01 05:48:33;;;;;;;10.88;5.80;;;9.20;90.30;;;;;;5030727;28;20049;-78
2022/03/01 05:50:59;;;;;;;11.25;4.90;;;9.20;89.40;;;;;;5030804;28;20525;-78
2022/03/01 05:53:25;;;;;;;14.63;5.60;;;9.40;89.20;;;;;;5029005;28;20096;-78
2022/03/01 05:55:50;;;;;;;11.00;6.28;;;9.30;89.30;;;;;;5028955;28;20437;-78
2022/03/01 05:58:16;;;;;;;9.43;5.13;;;9.30;90.20;;;;;;5029030;28;20120;-78
2022/03/01 06:00:42;;;;;;;10.55;5.50;;;9.40;90.20;;;;;;5028977;28;20086;-77
2022/03/01 06:03:08;;;;;;;10.07;5.40;;;9.40;90.30;;;;;;5032059;28;20021;-78
2022/03/01 06:05:35;;;;;;;11.68;5.57;;;9.30;90.50;;;;;;5028435;28;20037;-78
2022/03/01 06:08:01;;;;;;;11.00;5.57;;;9.20;90.80;;;;;;5031155;28;20034;-78
2022/03/01 06:10:27;;;;;;;9.68;5.40;;;9.20;91.00;;;;;;5028845;28;20509;-78
2022/03/01 06:12:53;;;;;;;11.90;5.40;;;9.30;90.90;;;;;;5028905;28;20053;-82
2022/03/01 06:15:19;;;;;;;11.18;6.20;;;9.20;91.00;;;;;;5031133;28;20033;-79
2022/03/01 06:17:44;;;;;;;10.85;5.75;;;9.20;91.70;;;;;;5030504;28;20036;-80
2022/03/01 06:20:11;;;;;;;8.70;4.88;;;9.20;91.60;;;;;;5028302;28;20045;-81
2022/03/01 06:22:39;;;;;;;13.93;6.10;;;9.20;91.60;;;;;;5028782;28;20033;-83
2022/03/01 06:25:06;;;;;;;10.65;5.57;;;9.00;92.00;;;;;;5028347;28;20053;-79
2022/03/01 06:27:33;;;;;;;10.80;5.63;;;9.10;92.00;;;;;;5028567;28;20127;-82
2022/03/01 06:29:59;;;;;;;13.55;6.63;;;9.10;92.30;;;;;;5030668;28;20024;-81
2022/03/01 06:32:25;;;;;;;14.25;7.07;;;9.00;92.20;;;;;;5028145;28;20030;-80
2022/03/01 06:34:51;;;;;;;11.68;7.00;;;9.10;92.90;;;;;;5028184;28;20446;-79
2022/03/01 06:37:16;;;;;;;15.82;8.68;;;9.20;92.90;;;;;;5028743;28;20021;-80
2022/03/01 06:39:44;;;;;;;12.15;7.30;;;9.10;92.90;;;;;;5028527;28;20045;-80
2022/03/01 06:42:11;;;;;;;14.40;9.15;;;9.10;92.90;;;;;;5029118;28;20044;-80
2022/03/01 06:44:37;;;;;;;14.88;8.13;;;9.20;92.50;;;;;;5030728;28;20017;-81
2022/03/01 06:47:04;;;;;;;13.38;7.95;;;9.10;92.50;;;;;;5027772;28;20034;-80
2022/03/01 06:49:30;;;;;;;15.10;8.68;;;9.10;92.90;;;;;;5027947;28;20037;-80
2022/03/01 06:51:56;;;;;;;14.43;8.13;;;9.00;93.00;;;;;;5028148;28;20125;-80
2022/03/01 06:54:22;;;;;;;12.90;7.88;;;9.00;92.60;;;;;;5030434;28;20418;-79
2022/03/01 06:56:48;;;;;;;12.20;8.13;;;9.00;92.80;;;;;;5028772;28;20053;-78
2022/03/01 06:59:14;;;;;;;12.18;6.88;;;9.00;92.20;;;;;;5027977;28;20064;-78
2022/03/01 07:01:40;;;;;;;10.68;7.13;;;9.10;92.30;;;;;;5028182;28;20029;-83
2022/03/01 07:04:06;;;;;;;12.32;7.30;;;9.30;92.00;;;;;;5027880;28;20022;-78
2022/03/01 07:06:32;;;;;;;10.60;6.70;;;9.20;91.90;;;;;;5029951;28;20037;-79
2022/03/01 07:08:58;;;;;;;14.75;6.55;;;9.30;92.30;;;;;;5030245;28;20033;-80
2022/03/01 07:11:24;;;;;;;15.20;6.68;;;9.40;92.10;;;;;;5027650;28;20030;-80
2022/03/01 07:13:50;;;;;;;11.60;7.28;;;9.40;91.60;;;;;;5027992;28;20113;-81
2022/03/01 07:16:16;;;;;;;12.43;6.55;;;9.40;91.70;;;;;;5027866;28;20135;-81
2022/03/01 07:18:42;;;;;;;12.38;7.10;;;9.40;91.70;;;;;;5028255;28;20084;-82
2022/03/01 07:21:09;;;;;;;12.00;6.47;;;9.40;91.30;;;;;;5027836;28;20120;-81
2022/03/01 07:23:34;;;;;;;14.18;7.15;;;9.50;90.70;;;;;;5028565;28;20096;-81
2022/03/01 07:26:01;;;;;;;14.40;7.07;;;9.60;90.10;;;;;;5027989;28;20116;-81
2022/03/01 07:28:27;;;;;;;12.63;7.18;;;9.60;90.40;;;;;;5027770;28;20014;-81
2022/03/01 07:30:54;;;;;;;12.82;7.68;;;9.60;90.90;;;;;;5027766;28;20034;-80
2022/03/01 07:33:20;;;;;;;12.93;7.28;;;9.60;90.50;;;;;;5030093;28;20021;-81
2022/03/01 07:35:46;;;;;;;13.02;6.63;;;9.60;90.30;;;;;;5027412;28;20029;-80
2022/03/01 07:38:12;;;;;;;14.68;7.22;;;9.80;90.00;;;;;;5027582;28;20030;-80
2022/03/01 07:40:38;;;;;;;12.98;6.15;;;9.80;90.40;;;;;;5027487;28;20125;-80
2022/03/01 07:43:04;;;;;;;13.38;6.80;;;9.90;90.30;;;;;;5028226;28;20030;-80
2022/03/01 07:45:29;;;;;;;13.88;6.70;;;10.00;90.30;;;;;;5029408;28;20033;-80
2022/03/01 07:47:57;;;;;;;9.30;6.47;;;10.10;90.60;;;;;;5028770;28;20517;-79
2022/03/01 07:50:23;;;;;;;12.45;6.80;;;10.10;90.70;;;;;;5027482;28;20037;-81
2022/03/01 07:52:49;;;;;;;12.77;6.88;;;10.30;90.20;;;;;;5027956;28;20028;-82
2022/03/01 07:55:14;;;;;;;11.40;6.40;;;10.50;90.40;;;;;;5027371;28;20034;-80
2022/03/01 07:57:41;;;;;;;12.95;7.38;;;10.60;90.30;;;;;;5020624;28;20021;-80
2022/03/01 08:00:09;;;;;;;12.35;6.43;;;10.60;90.80;;;;;;5028662;28;20061;-80
2022/03/01 08:02:36;;;;;;;12.57;6.47;;;10.80;90.20;;;;;;5027137;28;20410;-80
2022/03/01 08:05:04;;;;;;;16.05;6.80;;;11.10;90.00;;;;;;5027747;28;20112;-81
2022/03/01 08:07:29;;;;;;;12.50;7.15;;;11.30;90.40;;;;;;5027475;28;20434;-80
2022/03/01 08:09:55;;;;;;;12.98;6.70;;;11.40;89.90;;;;;;5032345;28;20033;-79
2022/03/01 08:12:21;;;;;;;13.85;7.10;;;11.60;88.90;;;;;;5033677;28;20532;-81
2022/03/01 08:14:47;;;;;;;13.00;6.93;;;11.70;87.40;;;;;;5033824;28;20069;-81
2022/03/01 08:17:12;;;;;;;14.70;7.68;;;11.90;85.50;;;;;;5027794;28;20108;-80
2022/03/01 08:19:38;;;;;;;12.10;7.85;;;11.90;83.90;;;;;;5022738;28;20060;-81
2022/03/01 08:22:04;;;;;;;12.70;7.80;;;12.00;85.00;;;;;;5024152;28;20413;-75
2022/03/01 08:24:30;;;;;;;14.15;8.82;;;12.30;86.30;;;;;;5024040;28;20063;-82
2022/03/01 08:26:55;;;;;;;18.17;8.98;;;12.60;82.30;;;;;;5025962;28;20018;-80
2022/03/01 08:29:21;;;;;;;17.77;9.90;;;12.50;83.00;;;;;;5022756;28;20568;-82
2022/03/01 08:31:47;;;;;;;15.07;9.70;;;12.40;81.80;;;;;;5022517;28;20018;-82
2022/03/01 08:34:13;;;;;;;17.40;10.10;;;12.20;81.60;;;;;;5022808;28;20034;-80
2022/03/01 08:36:39;;;;;;;19.10;10.15;;;12.10;82.20;;;;;;5023177;28;20112;-81
2022/03/01 08:39:05;;;;;;;13.70;9.15;;;11.90;84.10;;;;;;5024919;28;20120;-81
2022/03/01 08:41:31;;;;;;;17.48;9.88;;;12.00;83.10;;;;;;5028750;28;20563;-79
2022/03/01 08:43:57;;;;;;;20.42;10.10;;;11.90;83.50;;;;;;5030614;28;20030;-81
2022/03/01 08:46:24;;;;;;;16.15;10.38;;;11.80;84.50;;;;;;5030258;28;20087;-79
2022/03/01 08:48:53;;;;;;;16.98;10.35;;;11.80;83.40;;;;;;5030366;28;20118;-80
2022/03/01 08:51:22;;;;;;;15.77;10.45;;;11.80;85.30;;;;;;5027499;28;20044;-79
2022/03/01 08:53:52;;;;;;;18.10;10.27;;;12.00;83.50;;;;;;5033469;28;20040;-79
2022/03/01 08:56:19;;;;;;;16.92;10.65;;;12.00;84.70;;;;;;5033828;28;20040;-80
2022/03/01 08:58:46;;;;;;;18.90;10.75;;;11.80;81.90;;;;;;5032931;28;20034;-80
2022/03/01 09:01:12;;;;;;;16.95;10.57;;;11.90;83.20;;;;;;5032950;28;20123;-79
2022/03/01 09:03:38;;;;;;;18.33;12.15;;;12.10;83.90;;;;;;5028110;28;20468;-80
2022/03/01 09:06:05;;;;;;;17.83;10.60;;;12.20;82.90;;;;;;5034920;28;20053;-81
2022/03/01 09:08:37;;;;;;;19.63;10.65;;;12.10;82.30;;;;;;5031632;28;20383;-80
2022/03/01 09:11:03;;;;;;;24.73;12.85;;;12.20;82.20;;;;;;5033035;28;20100;-80
2022/03/01 09:13:29;;;;;;;18.60;12.10;;;12.20;82.90;;;;;;5033388;28;20032;-80
2022/03/01 09:15:55;;;;;;;21.65;11.70;;;12.20;81.30;;;;;;5029835;28;20032;-80
2022/03/01 09:18:21;;;;;;;21.75;12.75;;;12.30;81.00;;;;;;5031836;28;20045;-80
2022/03/01 09:20:48;;;;;;;23.23;13.05;;;12.30;79.90;;;;;;5033829;28;20527;-80
2022/03/01 09:23:14;;;;;;;19.92;13.40;;;12.30;82.00;;;;;;5031944;28;20026;-80
2022/03/01 09:25:39;;;;;;;21.98;12.70;;;12.40;81.80;;;;;;5032003;28;20048;-80
2022/03/01 09:28:05;;;;;;;20.70;13.05;;;12.60;80.60;;;;;;5030789;28;20013;-81
2022/03/01 09:30:32;;;;;;;20.83;12.48;;;13.00;79.30;;;;;;5029416;28;20040;-84
2022/03/01 09:32:58;;;;;;;23.27;12.77;;;13.80;76.10;;;;;;5034458;28;20034;-77
2022/03/01 09:35:24;;;;;;;18.33;13.13;;;14.60;75.30;;;;;;5032841;28;20028;-78
2022/03/01 09:37:50;;;;;;;21.52;12.93;;;14.40;73.20;;;;;;5032947;28;20037;-77
2022/03/01 09:40:16;;;;;;;17.85;12.63;;;15.50;73.50;;;;;;5033090;28;20037;-77
2022/03/01 09:42:43;;;;;;;19.13;12.65;;;19.60;64.10;;;;;;5028120;28;20144;-74
2022/03/01 09:45:11;;;;;;;16.88;11.88;;;22.60;53.50;;;;;;5034351;28;20437;-73
2022/03/01 09:47:37;;;;;;;20.67;12.23;;;24.50;49.50;;;;;;5031767;28;20041;-73
2022/03/01 09:50:04;;;;;;;20.27;12.98;;;22.60;48.80;;;;;;5032216;28;20038;-74
2022/03/01 09:52:30;;;;;;;21.63;13.63;;;20.10;52.30;;;;;;5032320;28;20021;-72
2022/03/01 09:54:56;;;;;;;24.88;13.80;;;17.30;57.30;;;;;;5030320;28;20061;-74
2022/03/01 09:57:22;;;;;;;24.15;13.80;;;15.90;62.90;;;;;;5029388;28;20064;-72
2022/03/01 09:59:48;;;;;;;22.13;13.55;;;15.20;64.40;;;;;;5033705;28;20501;-75
2022/03/01 10:02:14;;;;;;;19.73;13.43;;;14.90;67.30;;;;;;5032718;28;20537;-75
2022/03/01 10:04:53;;;;;;;22.40;13.32;;;14.60;66.30;;;;;;5032526;28;20041;-76
2022/03/01 10:07:24;;;;;;;21.35;13.98;;;14.30;67.60;;;;;;5032315;28;20028;-75
2022/03/01 10:09:51;;;;;;;23.25;14.27;;;14.00;68.90;;;;;;5026846;28;20033;-74
2022/03/01 10:12:27;;;;;;;17.85;13.32;;;14.20;69.10;;;;;;5032128;28;20030;-73
2022/03/01 10:15:06;;;;;;;19.55;13.10;;;13.90;69.60;;;;;;5034002;28;20030;-76
2022/03/01 10:17:33;;;;;;;18.40;13.13;;;13.90;70.00;;;;;;5033114;28;20136;-76
2022/03/01 10:20:06;;;;;;;20.05;13.40;;;14.00;70.00;;;;;;5027773;28;20043;-76
2022/03/01 10:22:32;;;;;;;22.17;13.57;;;13.90;70.30;;;;;;5031730;28;20108;-76
2022/03/01 10:25:07;;;;;;;22.08;12.93;;;13.60;70.00;;;;;;5028453;28;20113;-75
2022/03/01 10:27:33;;;;;;;22.70;13.82;;;13.50;71.80;;;;;;5026224;28;20055;-76
2022/03/01 10:30:00;;;;;;;22.15;13.02;;;13.70;71.30;;;;;;5032289;28;20065;-75
2022/03/01 10:32:26;;;;;;;20.63;13.90;;;13.80;70.90;;;;;;5031254;28;20033;-75
2022/03/01 10:35:07;;;;;;;21.65;13.10;;;13.90;70.70;;;;;;5031619;28;20029;-76
2022/03/01 10:37:35;;;;;;;19.77;13.45;;;13.90;70.70;;;;;;5031366;28;20029;-76
2022/03/01 10:40:15;;;;;;;23.63;14.00;;;14.10;70.10;;;;;;5027153;28;20075;-74
2022/03/01 10:42:42;;;;;;;18.50;13.65;;;14.10;69.10;;;;;;5025144;28;20033;-76
2022/03/01 10:45:09;;;;;;;21.60;14.20;;;14.30;67.80;;;;;;5035740;28;20502;-77
2022/03/01 10:47:37;;;;;;;21.83;13.95;;;14.20;67.80;;;;;;5017600;28;20111;-79
2022/03/01 10:50:09;;;;;;;22.48;14.85;;;13.90;67.50;;;;;;5024951;28;20046;-79
2022/03/01 10:52:41;;;;;;;23.77;15.75;;;13.90;67.60;;;;;;5030682;28;20054;-81
2022/03/01 10:55:25;;;;;;;23.17;14.80;;;14.20;67.50;;;;;;5029664;28;20025;-81
2022/03/01 10:57:59;;;;;;;26.37;15.03;;;13.90;67.40;;;;;;5024942;28;20026;-80
2022/03/01 11:00:25;;;;;;;21.55;15.15;;;14.00;67.80;;;;;;5030113;28;20434;-79
2022/03/01 11:02:51;;;;;;;26.35;15.70;;;14.00;67.40;;;;;;5031909;28;20523;-81
2022/03/01 11:05:16;;;;;;;23.27;15.85;;;14.10;67.30;;;;;;5029940;28;20061;-80
2022/03/01 11:07:47;;;;;;;21.35;15.38;;;14.10;68.10;;;;;;5029891;28;20116;-80
2022/03/01 11:10:13;;;;;;;22.50;14.93;;;14.10;67.40;;;;;;5028730;28;20562;-80
2022/03/01 11:12:42;;;;;;;23.20;15.60;;;14.20;67.20;;;;;;5026007;28;20367;-81
2022/03/01 11:15:43;;;;;;;22.63;13.88;;;14.40;67.10;;;;;;5030426;28;20029;-81
2022/03/01 11:18:39;;;;;;;21.55;14.27;;;14.40;67.20;;;;;;5031677;28;20033;-80
2022/03/01 11:21:10;;;;;;;22.92;14.18;;;14.40;66.30;;;;;;5032679;28;20041;-84
2022/03/01 11:23:37;;;;;;;25.13;15.40;;;14.40;66.30;;;;;;5028932;28;20021;-79
2022/03/01 11:26:11;;;;;;;19.98;14.10;;;14.40;66.40;;;;;;5030595;28;20310;-78
2022/03/01 11:28:49;;;;;;;19.70;14.35;;;14.80;66.60;;;;;;5029366;28;20033;-79
2022/03/01 11:31:23;;;;;;;23.60;13.93;;;14.60;65.90;;;;;;5028952;28;20029;-78
2022/03/01 11:33:53;;;;;;;;;;;14.90;67.70;;;;;;5023255;28;20057;-78
2022/03/01 11:36:24;;;;;;;22.73;14.00;;;14.90;66.60;;;;;;5029929;28;19960;-78
2022/03/01 11:38:50;;;;;;;20.05;12.93;;;15.00;67.40;;;;;;5032002;28;20034;-79
2022/03/01 11:41:22;;;;;;;20.60;13.60;;;15.10;66.70;;;;;;5028705;28;20037;-78
2022/03/01 11:44:01;;;;;;;23.05;13.88;;;14.90;66.80;;;;;;5032008;28;20037;-78
2022/03/01 11:46:26;;;;;;;22.10;13.68;;;14.80;67.30;;;;;;5028145;28;20498;-78
2022/03/01 11:48:55;;;;;;;20.27;13.10;;;14.70;66.30;;;;;;5030981;28;20077;-78
2022/03/01 11:51:34;;;;;;;19.70;12.63;;;14.50;66.60;;;;;;5037613;28;20043;-79
2022/03/01 11:54:26;;;;;;;20.55;12.00;;;14.50;67.50;;;;;;5037058;28;20026;-77
2022/03/01 11:56:55;;;;;;;18.17;11.35;;;14.90;67.50;;;;;;5038325;28;20052;-78
2022/03/01 11:59:21;;;;;;;18.00;11.10;;;14.90;66.40;;;;;;5035161;28;20032;-76
2022/03/01 12:01:47;;;;;;;19.65;12.32;;;14.50;67.30;;;;;;5035304;28;20516;-74
2022/03/01 12:04:20;;;;;;;19.88;11.55;;;14.40;66.70;;;;;;5031264;28;20486;-73
2022/03/01 12:06:46;;;;;;;18.48;10.93;;;14.70;67.40;;;;;;5026147;28;20398;-74
2022/03/01 12:09:12;;;;;;;18.83;9.75;;;14.80;66.70;;;;;;5029203;28;20057;-73
2022/03/01 12:11:40;;;;;;;22.00;10.75;;;15.10;67.90;;;;;;5026884;28;20065;-74
2022/03/01 12:14:12;;;;;;;18.38;10.07;;;15.10;67.50;;;;;;5024473;28;20448;-74
2022/03/01 12:16:39;;;;;;;21.67;10.60;;;15.40;67.60;;;;;;5031558;28;20072;-74
2022/03/01 12:19:14;;;;;;;17.60;9.77;;;16.00;65.60;;;;;;5030114;28;20219;-73
2022/03/01 12:22:04;;;;;;;15.93;9.77;;;16.50;65.30;;;;;;5032934;28;20044;-74
2022/03/01 12:24:30;;;;;;;15.75;9.00;;;17.60;63.00;;;;;;5032381;28;20025;-73
2022/03/01 12:26:59;;;;;;;15.18;8.65;;;18.70;61.30;;;;;;5034735;28;20406;-73
2022/03/01 12:29:33;;;;;;;16.35;8.90;;;19.30;58.50;;;;;;5033409;28;20033;-73
2022/03/01 12:32:06;;;;;;;21.30;8.52;;;20.60;57.20;;;;;;5032984;28;20032;-74
2022/03/01 12:34:33;;;;;;;17.73;9.20;;;21.00;56.00;;;;;;5028301;28;20036;-74
2022/03/01 12:37:01;;;;;;;15.25;7.32;;;20.20;55.90;;;;;;5030740;28;20033;-75
2022/03/01 12:39:27;;;;;;;19.70;10.00;;;18.90;58.10;;;;;;5034794;28;20040;-74
2022/03/01 12:41:54;;;;;;;16.13;9.07;;;18.20;57.70;;;;;;5034888;28;20033;-74